createdAt,value
2023-08-15T00:00:31.840Z,0.00
2023-08-15T00:01:31.931Z,0.00
2023-08-15T00:02:31.890Z,0.00
2023-08-15T00:03:31.923Z,0.00
2023-08-15T00:04:31.774Z,0.00
2023-08-15T00:05:31.750Z,0.00
2023-08-15T00:06:31.760Z,0.00
2023-08-15T00:07:31.729Z,0.00
2023-08-15T00:08:31.766Z,0.00
2023-08-15T00:09:31.702Z,0.00
2023-08-15T00:10:31.724Z,0.00
2023-08-15T00:11:31.689Z,0.00
2023-08-15T00:12:31.941Z,0.00
2023-08-15T00:13:31.696Z,0.00
2023-08-15T00:14:32.976Z,0.00
2023-08-15T00:15:31.650Z,0.00
2023-08-15T00:16:31.666Z,0.00
2023-08-15T00:17:31.641Z,0.00
2023-08-15T00:18:31.627Z,0.00
2023-08-15T00:19:31.599Z,0.00
2023-08-15T00:20:31.618Z,0.00
2023-08-15T00:21:31.582Z,0.00
2023-08-15T00:22:31.584Z,0.00
2023-08-15T00:23:31.551Z,0.00
2023-08-15T00:24:31.566Z,0.00
2023-08-15T00:25:31.622Z,0.00
2023-08-15T00:26:31.551Z,0.00
2023-08-15T00:27:31.509Z,0.00
2023-08-15T00:28:31.514Z,0.00
2023-08-15T00:29:31.513Z,0.00
2023-08-15T00:30:31.531Z,0.00
2023-08-15T00:31:31.464Z,0.00
2023-08-15T00:32:31.511Z,0.00
2023-08-15T00:33:31.448Z,0.00
2023-08-15T00:34:31.453Z,0.00
2023-08-15T00:35:31.423Z,0.00
2023-08-15T00:36:31.498Z,0.00
2023-08-15T00:37:31.629Z,0.00
2023-08-15T00:38:31.429Z,0.00
2023-08-15T00:39:31.384Z,0.00
2023-08-15T00:40:31.411Z,0.00
2023-08-15T00:41:31.417Z,0.00
2023-08-15T00:42:31.405Z,0.00
2023-08-15T00:43:31.338Z,0.00
2023-08-15T00:44:32.459Z,0.00
2023-08-15T00:45:31.353Z,0.00
2023-08-15T00:46:31.341Z,0.00
2023-08-15T00:47:31.332Z,0.00
2023-08-15T00:48:31.297Z,0.00
2023-08-15T00:49:31.270Z,0.00
2023-08-15T00:50:31.265Z,0.00
2023-08-15T00:51:31.735Z,0.00
2023-08-15T00:52:31.252Z,0.00
2023-08-15T00:53:31.227Z,0.00
2023-08-15T00:54:31.241Z,0.00
2023-08-15T00:55:31.203Z,0.00
2023-08-15T00:56:31.222Z,0.00
2023-08-15T00:57:31.222Z,0.00
2023-08-15T00:58:31.187Z,0.00
2023-08-15T00:59:31.157Z,0.00
2023-08-15T01:00:31.160Z,0.00
2023-08-15T01:01:31.171Z,0.00
2023-08-15T01:02:31.232Z,0.00
2023-08-15T01:03:31.278Z,0.00
2023-08-15T01:04:31.265Z,0.00
2023-08-15T01:05:31.108Z,0.00
2023-08-15T01:06:31.091Z,0.00
2023-08-15T01:07:31.064Z,0.00
2023-08-15T01:08:31.081Z,0.00
2023-08-15T01:09:31.061Z,0.00
2023-08-15T01:10:31.076Z,0.00
2023-08-15T01:11:31.022Z,0.00
2023-08-15T01:12:31.024Z,0.00
2023-08-15T01:13:31.002Z,0.00
2023-08-15T01:14:31.054Z,0.00
2023-08-15T01:15:30.974Z,0.00
2023-08-15T01:16:31.009Z,0.00
2023-08-15T01:17:31.060Z,0.00
2023-08-15T01:18:30.987Z,0.00
2023-08-15T01:19:31.683Z,0.00
2023-08-15T01:20:31.025Z,0.00
2023-08-15T01:21:30.909Z,0.00
2023-08-15T01:22:30.934Z,0.00
2023-08-15T01:23:30.884Z,0.00
2023-08-15T01:24:30.884Z,0.00
2023-08-15T01:25:30.858Z,0.00
2023-08-15T01:26:30.881Z,0.00
2023-08-15T01:27:30.850Z,0.00
2023-08-15T01:28:30.873Z,0.00
2023-08-15T01:29:30.832Z,0.00
2023-08-15T01:30:30.820Z,0.00
2023-08-15T01:31:30.873Z,0.00
2023-08-15T01:32:30.851Z,0.00
2023-08-15T01:33:31.298Z,0.00
2023-08-15T01:34:30.827Z,0.00
2023-08-15T01:35:30.752Z,0.00
2023-08-15T01:36:30.753Z,0.00
2023-08-15T01:37:30.740Z,0.00
2023-08-15T01:38:30.753Z,0.00
2023-08-15T01:39:30.711Z,0.00
2023-08-15T01:40:30.779Z,0.00
2023-08-15T01:41:30.677Z,0.00
2023-08-15T01:42:30.679Z,0.00
2023-08-15T01:43:30.662Z,0.00
2023-08-15T01:44:30.658Z,0.00
2023-08-15T01:45:30.682Z,0.00
2023-08-15T01:46:31.306Z,0.00
2023-08-15T01:47:30.649Z,0.00
2023-08-15T01:48:30.683Z,0.00
2023-08-15T01:49:30.581Z,0.00
2023-08-15T01:50:30.592Z,0.00
2023-08-15T01:51:30.559Z,0.00
2023-08-15T01:52:30.612Z,0.00
2023-08-15T01:53:30.547Z,0.00
2023-08-15T01:54:30.591Z,0.00
2023-08-15T01:55:30.530Z,0.00
2023-08-15T01:56:30.538Z,0.00
2023-08-15T01:57:30.541Z,0.00
2023-08-15T01:58:30.485Z,0.00
2023-08-15T01:59:30.508Z,0.00
2023-08-15T02:00:30.501Z,0.00
2023-08-15T02:01:30.506Z,0.00
2023-08-15T02:02:30.501Z,0.00
2023-08-15T02:03:30.462Z,0.00
2023-08-15T02:04:30.419Z,0.00
2023-08-15T02:05:30.551Z,0.00
2023-08-15T02:06:30.445Z,0.00
2023-08-15T02:07:30.404Z,0.00
2023-08-15T02:08:30.368Z,0.00
2023-08-15T02:09:30.378Z,0.00
2023-08-15T02:10:30.389Z,0.00
2023-08-15T02:11:30.360Z,0.00
2023-08-15T02:12:30.362Z,0.00
2023-08-15T02:13:30.338Z,0.00
2023-08-15T02:14:30.306Z,0.00
2023-08-15T02:15:30.370Z,0.00
2023-08-15T02:16:30.305Z,0.00
2023-08-15T02:17:30.334Z,0.00
2023-08-15T02:18:30.322Z,0.00
2023-08-15T02:19:30.260Z,0.00
2023-08-15T02:20:30.237Z,0.00
2023-08-15T02:21:30.295Z,0.00
2023-08-15T02:22:30.233Z,0.00
2023-08-15T02:23:30.215Z,0.00
2023-08-15T02:24:30.465Z,0.00
2023-08-15T02:25:30.201Z,0.00
2023-08-15T02:26:30.173Z,0.00
2023-08-15T02:27:30.236Z,0.00
2023-08-15T02:28:30.145Z,0.00
2023-08-15T02:29:31.653Z,0.00
2023-08-15T02:30:30.124Z,0.00
2023-08-15T02:31:30.169Z,0.00
2023-08-15T02:32:30.136Z,0.00
2023-08-15T02:33:31.083Z,0.00
2023-08-15T02:34:30.099Z,0.00
2023-08-15T02:35:30.082Z,0.00
2023-08-15T02:36:30.050Z,0.00
2023-08-15T02:37:30.060Z,0.00
2023-08-15T02:38:30.325Z,0.00
2023-08-15T02:39:30.035Z,0.00
2023-08-15T02:40:30.006Z,0.00
2023-08-15T02:41:30.504Z,0.00
2023-08-15T02:42:29.998Z,0.00
2023-08-15T02:43:30.330Z,0.00
2023-08-15T02:44:30.008Z,0.00
2023-08-15T02:45:29.965Z,0.00
2023-08-15T02:46:30.019Z,0.00
2023-08-15T02:47:29.954Z,0.00
2023-08-15T02:48:29.921Z,0.00
2023-08-15T02:49:29.922Z,0.00
2023-08-15T02:50:29.923Z,0.00
2023-08-15T02:51:30.081Z,0.00
2023-08-15T02:52:29.870Z,0.00
2023-08-15T02:53:29.882Z,0.00
2023-08-15T02:54:29.858Z,0.00
2023-08-15T02:55:29.862Z,0.00
2023-08-15T02:56:29.863Z,0.00
2023-08-15T02:57:30.123Z,0.00
2023-08-15T02:58:29.824Z,0.00
2023-08-15T02:59:29.845Z,0.00
2023-08-15T03:00:29.786Z,0.00
2023-08-15T03:01:29.803Z,0.00
2023-08-15T03:02:30.391Z,0.00
2023-08-15T03:03:30.061Z,0.00
2023-08-15T03:04:29.754Z,0.00
2023-08-15T03:05:29.772Z,0.00
2023-08-15T03:06:29.883Z,0.00
2023-08-15T03:07:29.719Z,0.00
2023-08-15T03:08:29.703Z,0.00
2023-08-15T03:09:29.725Z,0.00
2023-08-15T03:10:29.685Z,0.00
2023-08-15T03:11:29.688Z,0.00
2023-08-15T03:12:29.686Z,0.00
2023-08-15T03:13:29.657Z,0.00
2023-08-15T03:14:29.661Z,0.00
2023-08-15T03:15:29.631Z,0.00
2023-08-15T03:16:29.680Z,0.00
2023-08-15T03:17:29.641Z,0.00
2023-08-15T03:18:29.652Z,0.00
2023-08-15T03:19:29.586Z,0.00
2023-08-15T03:20:29.569Z,0.00
2023-08-15T03:21:29.577Z,0.00
2023-08-15T03:22:29.544Z,0.00
2023-08-15T03:23:29.601Z,0.00
2023-08-15T03:24:29.550Z,0.00
2023-08-15T03:25:29.524Z,0.00
2023-08-15T03:26:29.513Z,0.00
2023-08-15T03:27:29.505Z,0.00
2023-08-15T03:28:30.312Z,0.00
2023-08-15T03:29:29.528Z,0.00
2023-08-15T03:30:29.515Z,0.00
2023-08-15T03:31:29.965Z,0.00
2023-08-15T03:32:29.449Z,0.00
2023-08-15T03:33:29.501Z,1.00
2023-08-15T03:34:29.358Z,1.00
2023-08-15T03:35:29.490Z,0.00
2023-08-15T03:36:29.394Z,0.00
2023-08-15T03:37:29.395Z,0.00
2023-08-15T03:38:29.368Z,0.00
2023-08-15T03:39:29.378Z,0.00
2023-08-15T03:40:29.309Z,1.00
2023-08-15T03:41:29.632Z,0.00
2023-08-15T03:42:29.339Z,0.00
2023-08-15T03:43:29.312Z,2.00
2023-08-15T03:44:29.527Z,1.00
2023-08-15T03:45:29.328Z,0.00
2023-08-15T03:46:29.337Z,4.00
2023-08-15T03:47:29.246Z,3.00
2023-08-15T03:48:29.202Z,3.00
2023-08-15T03:49:29.204Z,4.00
2023-08-15T03:50:29.182Z,2.00
2023-08-15T03:51:45.751Z,8.00
2023-08-15T03:52:29.182Z,5.00
2023-08-15T03:53:29.172Z,4.00
2023-08-15T03:54:29.150Z,4.00
2023-08-15T03:55:30.324Z,7.00
2023-08-15T03:56:29.153Z,5.00
2023-08-15T03:57:29.126Z,5.00
2023-08-15T03:58:29.096Z,9.00
2023-08-15T03:59:29.118Z,8.00
2023-08-15T04:00:29.077Z,7.00
2023-08-15T04:01:29.089Z,7.00
2023-08-15T04:02:29.112Z,6.00
2023-08-15T04:03:29.117Z,6.00
2023-08-15T04:04:29.022Z,8.00
2023-08-15T04:05:29.035Z,11.00
2023-08-15T04:06:29.818Z,15.00
2023-08-15T04:07:29.002Z,17.00
2023-08-15T04:08:28.978Z,21.00
2023-08-15T04:09:28.998Z,26.00
2023-08-15T04:10:28.967Z,29.00
2023-08-15T04:11:28.978Z,31.00
2023-08-15T04:12:29.801Z,35.00
2023-08-15T04:13:28.936Z,42.00
2023-08-15T04:14:28.930Z,47.00
2023-08-15T04:15:28.926Z,52.00
2023-08-15T04:16:29.009Z,58.00
2023-08-15T04:17:28.914Z,63.00
2023-08-15T04:18:28.872Z,71.00
2023-08-15T04:19:28.889Z,84.00
2023-08-15T04:20:28.891Z,97.00
2023-08-15T04:21:28.870Z,110.00
2023-08-15T04:22:28.923Z,124.00
2023-08-15T04:23:28.834Z,142.00
2023-08-15T04:24:28.813Z,161.00
2023-08-15T04:25:31.486Z,277.00
2023-08-15T04:26:28.825Z,126.00
2023-08-15T04:27:28.814Z,101.00
2023-08-15T04:28:28.765Z,108.00
2023-08-15T04:29:28.775Z,125.00
2023-08-15T04:30:28.740Z,144.00
2023-08-15T04:31:28.802Z,164.00
2023-08-15T04:32:28.778Z,183.00
2023-08-15T04:33:28.759Z,241.00
2023-08-15T04:34:28.698Z,237.00
2023-08-15T04:35:28.702Z,288.00
2023-08-15T04:36:28.689Z,169.00
2023-08-15T04:37:28.714Z,166.00
2023-08-15T04:38:28.664Z,366.00
2023-08-15T04:39:28.660Z,165.00
2023-08-15T04:40:28.712Z,140.00
2023-08-15T04:41:28.636Z,164.00
2023-08-15T04:42:28.868Z,335.00
2023-08-15T04:43:28.615Z,205.00
2023-08-15T04:44:28.588Z,221.00
2023-08-15T04:45:29.084Z,176.00
2023-08-15T04:46:28.708Z,300.00
2023-08-15T04:47:28.629Z,197.00
2023-08-15T04:48:30.677Z,107.00
2023-08-15T04:49:28.561Z,50.00
2023-08-15T04:50:28.564Z,77.00
2023-08-15T04:51:28.550Z,68.00
2023-08-15T04:52:28.507Z,60.00
2023-08-15T04:53:28.536Z,74.00
2023-08-15T04:54:28.494Z,96.00
2023-08-15T04:55:28.492Z,108.00
2023-08-15T04:56:28.756Z,78.00
2023-08-15T04:57:28.470Z,68.00
2023-08-15T04:58:28.450Z,133.00
2023-08-15T04:59:28.497Z,125.00
2023-08-15T05:00:28.432Z,149.00
2023-08-15T05:01:28.473Z,125.00
2023-08-15T05:02:28.472Z,206.00
2023-08-15T05:03:28.409Z,296.00
2023-08-15T05:04:28.384Z,245.00
2023-08-15T05:05:28.456Z,204.00
2023-08-15T05:06:28.366Z,276.00
2023-08-15T05:07:28.383Z,356.00
2023-08-15T05:08:28.352Z,415.00
2023-08-15T05:09:28.381Z,432.00
2023-08-15T05:10:28.314Z,553.00
2023-08-15T05:11:28.333Z,569.00
2023-08-15T05:12:28.292Z,552.00
2023-08-15T05:13:28.295Z,565.00
2023-08-15T05:14:28.285Z,596.00
2023-08-15T05:15:28.306Z,629.00
2023-08-15T05:16:28.259Z,654.00
2023-08-15T05:17:31.518Z,685.00
2023-08-15T05:18:28.246Z,748.00
2023-08-15T05:19:28.236Z,822.00
2023-08-15T05:20:28.211Z,936.00
2023-08-15T05:21:28.219Z,1062.00
2023-08-15T05:22:28.334Z,1219.00
2023-08-15T05:23:28.667Z,1369.00
2023-08-15T05:24:28.168Z,1538.00
2023-08-15T05:25:28.197Z,628.00
2023-08-15T05:26:28.418Z,630.00
2023-08-15T05:27:28.159Z,1501.00
2023-08-15T05:28:28.123Z,1542.00
2023-08-15T05:29:28.149Z,1722.00
2023-08-15T05:30:28.106Z,1853.00
2023-08-15T05:31:28.870Z,1799.00
2023-08-15T05:32:28.185Z,1902.00
2023-08-15T05:33:28.093Z,1993.00
2023-08-15T05:34:28.095Z,1731.00
2023-08-15T05:35:28.114Z,2006.00
2023-08-15T05:36:28.060Z,2003.00
2023-08-15T05:37:28.049Z,1947.00
2023-08-15T05:38:28.018Z,1856.00
2023-08-15T05:39:28.039Z,1661.00
2023-08-15T05:40:28.085Z,1468.00
2023-08-15T05:41:28.026Z,1320.00
2023-08-15T05:42:27.973Z,1268.00
2023-08-15T05:43:27.994Z,1245.00
2023-08-15T05:44:27.964Z,1253.00
2023-08-15T05:45:27.957Z,1331.00
2023-08-15T05:46:27.971Z,1405.00
2023-08-15T05:47:28.292Z,1523.00
2023-08-15T05:48:27.910Z,1628.00
2023-08-15T05:49:28.408Z,1629.00
2023-08-15T05:50:27.900Z,1743.00
2023-08-15T05:51:27.894Z,1821.00
2023-08-15T05:52:27.898Z,1916.00
2023-08-15T05:53:27.875Z,2046.00
2023-08-15T05:54:27.874Z,1964.00
2023-08-15T05:55:27.891Z,1642.00
2023-08-15T05:56:27.821Z,1529.00
2023-08-15T05:57:27.824Z,1625.00
2023-08-15T05:58:27.783Z,1631.00
2023-08-15T05:59:27.836Z,1649.00
2023-08-15T06:00:27.765Z,1709.00
2023-08-15T06:01:27.801Z,1850.00
2023-08-15T06:02:27.744Z,1948.00
2023-08-15T06:03:45.006Z,2167.00
2023-08-15T06:04:28.257Z,2379.00
2023-08-15T06:05:27.741Z,2561.00
2023-08-15T06:06:27.727Z,2489.00
2023-08-15T06:07:28.376Z,2482.00
2023-08-15T06:08:27.679Z,2500.00
2023-08-15T06:09:27.689Z,2372.00
2023-08-15T06:10:27.781Z,2279.00
2023-08-15T06:11:27.736Z,2107.00
2023-08-15T06:12:27.644Z,1987.00
2023-08-15T06:13:27.647Z,1905.00
2023-08-15T06:14:27.643Z,1860.00
2023-08-15T06:15:27.611Z,1879.00
2023-08-15T06:16:27.642Z,1903.00
2023-08-15T06:17:27.677Z,1939.00
2023-08-15T06:18:27.603Z,2056.00
2023-08-15T06:19:27.615Z,2026.00
2023-08-15T06:20:27.566Z,2516.00
2023-08-15T06:21:27.538Z,2378.00
2023-08-15T06:22:27.572Z,2533.00
2023-08-15T06:23:27.586Z,2557.00
2023-08-15T06:24:27.555Z,2373.00
2023-08-15T06:25:27.573Z,2445.00
2023-08-15T06:26:27.500Z,2652.00
2023-08-15T06:27:27.470Z,2504.00
2023-08-15T06:28:27.486Z,2441.00
2023-08-15T06:29:27.454Z,2215.00
2023-08-15T06:30:27.481Z,2064.00
2023-08-15T06:31:27.639Z,3542.00
2023-08-15T06:32:27.483Z,3734.00
2023-08-15T06:33:27.404Z,3579.00
2023-08-15T06:34:27.420Z,3649.00
2023-08-15T06:35:27.610Z,3514.00
2023-08-15T06:36:27.397Z,3500.00
2023-08-15T06:37:27.386Z,3572.00
2023-08-15T06:38:27.373Z,3303.00
2023-08-15T06:39:27.336Z,3054.00
2023-08-15T06:40:27.344Z,2835.00
2023-08-15T06:41:27.358Z,2758.00
2023-08-15T06:42:27.314Z,2694.00
2023-08-15T06:43:27.361Z,2857.00
2023-08-15T06:44:27.726Z,2777.00
2023-08-15T06:45:27.276Z,2508.00
2023-08-15T06:46:27.380Z,3157.00
2023-08-15T06:47:27.262Z,3113.00
2023-08-15T06:48:27.272Z,2910.00
2023-08-15T06:49:27.339Z,2712.00
2023-08-15T06:50:27.235Z,2490.00
2023-08-15T06:51:27.209Z,2538.00
2023-08-15T06:52:27.221Z,1751.00
2023-08-15T06:53:27.197Z,2300.00
2023-08-15T06:54:27.186Z,2081.00
2023-08-15T06:55:27.202Z,2242.00
2023-08-15T06:56:27.176Z,2311.00
2023-08-15T06:57:27.161Z,2495.00
2023-08-15T06:58:27.172Z,2385.00
2023-08-15T06:59:27.200Z,2342.00
2023-08-15T07:00:27.186Z,2397.00
2023-08-15T07:01:27.108Z,2284.00
2023-08-15T07:02:27.156Z,2217.00
2023-08-15T07:03:27.182Z,2286.00
2023-08-15T07:04:27.115Z,2314.00
2023-08-15T07:05:27.747Z,2361.00
2023-08-15T07:06:27.089Z,2316.00
2023-08-15T07:07:27.091Z,2410.00
2023-08-15T07:08:27.037Z,2485.00
2023-08-15T07:09:27.020Z,2521.00
2023-08-15T07:10:27.046Z,2532.00
2023-08-15T07:11:26.989Z,2500.00
2023-08-15T07:12:27.009Z,2498.00
2023-08-15T07:13:26.993Z,2495.00
2023-08-15T07:14:26.983Z,2538.00
2023-08-15T07:15:26.967Z,2547.00
2023-08-15T07:16:27.011Z,2537.00
2023-08-15T07:17:26.957Z,2507.00
2023-08-15T07:18:26.954Z,2495.00
2023-08-15T07:19:26.912Z,2494.00
2023-08-15T07:20:27.756Z,2467.00
2023-08-15T07:21:29.223Z,2504.00
2023-08-15T07:22:26.898Z,2484.00
2023-08-15T07:23:26.864Z,2518.00
2023-08-15T07:24:26.930Z,2502.00
2023-08-15T07:25:26.869Z,2367.00
2023-08-15T07:26:26.857Z,2510.00
2023-08-15T07:27:26.875Z,2587.00
2023-08-15T07:28:26.821Z,2386.00
2023-08-15T07:29:26.886Z,2499.00
2023-08-15T07:30:27.069Z,2566.00
2023-08-15T07:31:26.813Z,2639.00
2023-08-15T07:32:27.130Z,2596.00
2023-08-15T07:33:26.757Z,2580.00
2023-08-15T07:34:26.810Z,2535.00
2023-08-15T07:35:26.733Z,2464.00
2023-08-15T07:36:26.754Z,2433.00
2023-08-15T07:37:28.052Z,2382.00
2023-08-15T07:38:26.783Z,2525.00
2023-08-15T07:39:26.690Z,2502.00
2023-08-15T07:40:26.960Z,2322.00
2023-08-15T07:41:26.675Z,2367.00
2023-08-15T07:42:26.758Z,2324.00
2023-08-15T07:43:26.645Z,2264.00
2023-08-15T07:44:26.801Z,2220.00
2023-08-15T07:45:26.650Z,2276.00
2023-08-15T07:46:27.031Z,2372.00
2023-08-15T07:47:26.652Z,2277.00
2023-08-15T07:48:26.622Z,2404.00
2023-08-15T07:49:26.621Z,2509.00
2023-08-15T07:50:26.622Z,2454.00
2023-08-15T07:51:26.565Z,2465.00
2023-08-15T07:52:26.954Z,2494.00
2023-08-15T07:53:26.570Z,2612.00
2023-08-15T07:54:26.548Z,2607.00
2023-08-15T07:55:28.015Z,2595.00
2023-08-15T07:56:26.612Z,2617.00
2023-08-15T07:57:26.532Z,2604.00
2023-08-15T07:58:26.511Z,2614.00
2023-08-15T07:59:26.500Z,2491.00
2023-08-15T08:00:26.504Z,2529.00
2023-08-15T08:01:26.520Z,2474.00
2023-08-15T08:02:26.567Z,2519.00
2023-08-15T08:03:26.486Z,2518.00
2023-08-15T08:04:26.447Z,2450.00
2023-08-15T08:05:26.477Z,2468.00
2023-08-15T08:06:39.675Z,2320.00
2023-08-15T08:07:26.412Z,2336.00
2023-08-15T08:08:26.429Z,2490.00
2023-08-15T08:09:26.371Z,2247.00
2023-08-15T08:10:26.381Z,2401.00
2023-08-15T08:11:26.361Z,2409.00
2023-08-15T08:12:26.363Z,2685.00
2023-08-15T08:13:27.887Z,2734.00
2023-08-15T08:14:26.350Z,2951.00
2023-08-15T08:15:26.310Z,2804.00
2023-08-15T08:16:26.387Z,2946.00
2023-08-15T08:17:26.394Z,2992.00
2023-08-15T08:18:27.780Z,2997.00
2023-08-15T08:19:26.296Z,3069.00
2023-08-15T08:20:26.274Z,3314.00
2023-08-15T08:21:26.257Z,3458.00
2023-08-15T08:22:26.280Z,3536.00
2023-08-15T08:23:26.236Z,3551.00
2023-08-15T08:24:26.257Z,3420.00
2023-08-15T08:25:26.204Z,3510.00
2023-08-15T08:26:26.204Z,3316.00
2023-08-15T08:27:26.188Z,3511.00
2023-08-15T08:28:26.193Z,3470.00
2023-08-15T08:29:26.218Z,3517.00
2023-08-15T08:30:26.858Z,3365.00
2023-08-15T08:31:26.144Z,3178.00
2023-08-15T08:32:26.214Z,3204.00
2023-08-15T08:33:26.120Z,3007.00
2023-08-15T08:34:26.133Z,2748.00
2023-08-15T08:35:26.101Z,2589.00
2023-08-15T08:36:26.128Z,2433.00
2023-08-15T08:37:26.091Z,2447.00
2023-08-15T08:38:28.399Z,2381.00
2023-08-15T08:39:31.667Z,2418.00
2023-08-15T08:40:26.112Z,2403.00
2023-08-15T08:41:26.034Z,2437.00
2023-08-15T08:42:26.730Z,2526.00
2023-08-15T08:43:26.064Z,2628.00
2023-08-15T08:44:26.172Z,2692.00
2023-08-15T08:45:26.102Z,2635.00
2023-08-15T08:46:26.038Z,2735.00
2023-08-15T08:47:26.148Z,2804.00
2023-08-15T08:48:25.986Z,2864.00
2023-08-15T08:49:25.962Z,2873.00
2023-08-15T08:50:25.983Z,3033.00
2023-08-15T08:51:25.971Z,3212.00
2023-08-15T08:52:25.965Z,3201.00
2023-08-15T08:53:25.956Z,3323.00
2023-08-15T08:54:35.846Z,3280.00
2023-08-15T08:55:25.903Z,3202.00
2023-08-15T08:56:25.978Z,3261.00
2023-08-15T08:57:25.898Z,3209.00
2023-08-15T08:58:25.881Z,3234.00
2023-08-15T08:59:25.855Z,3099.00
2023-08-15T09:00:25.862Z,3166.00
2023-08-15T09:01:25.926Z,3079.00
2023-08-15T09:02:26.230Z,2995.00
2023-08-15T09:03:25.905Z,3011.00
2023-08-15T09:04:25.815Z,3040.00
2023-08-15T09:05:26.059Z,2837.00
2023-08-15T09:06:25.786Z,3157.00
2023-08-15T09:07:25.793Z,3250.00
2023-08-15T09:08:26.022Z,3265.00
2023-08-15T09:09:25.754Z,3299.00
2023-08-15T09:10:25.752Z,3347.00
2023-08-15T09:11:25.852Z,3398.00
2023-08-15T09:12:25.772Z,3393.00
2023-08-15T09:13:25.713Z,3383.00
2023-08-15T09:14:25.727Z,3399.00
2023-08-15T09:15:25.718Z,3336.00
2023-08-15T09:16:25.736Z,3551.00
2023-08-15T09:17:25.676Z,3656.00
2023-08-15T09:18:25.681Z,3682.00
2023-08-15T09:19:25.634Z,3655.00
2023-08-15T09:20:25.688Z,3664.00
2023-08-15T09:21:25.822Z,3546.00
2023-08-15T09:22:25.638Z,3450.00
2023-08-15T09:23:25.599Z,3391.00
2023-08-15T09:24:25.599Z,3402.00
2023-08-15T09:25:25.650Z,3651.00
2023-08-15T09:26:25.684Z,3639.00
2023-08-15T09:27:25.552Z,3835.00
2023-08-15T09:28:25.562Z,3902.00
2023-08-15T09:29:25.604Z,3957.00
2023-08-15T09:30:25.615Z,4080.00
2023-08-15T09:31:25.602Z,4208.00
2023-08-15T09:32:25.663Z,4336.00
2023-08-15T09:33:25.520Z,4563.00
2023-08-15T09:34:25.501Z,4867.00
2023-08-15T09:35:25.470Z,5105.00
2023-08-15T09:36:25.479Z,5315.00
2023-08-15T09:37:25.449Z,5375.00
2023-08-15T09:38:25.480Z,5559.00
2023-08-15T09:39:25.468Z,5719.00
2023-08-15T09:40:25.542Z,5842.00
2023-08-15T09:41:27.787Z,5874.00
2023-08-15T09:42:25.420Z,5789.00
2023-08-15T09:43:25.412Z,5839.00
2023-08-15T09:44:25.461Z,6064.00
2023-08-15T09:45:25.458Z,6132.00
2023-08-15T09:46:25.439Z,6115.00
2023-08-15T09:47:25.410Z,6230.00
2023-08-15T09:48:25.349Z,6183.00
2023-08-15T09:49:25.320Z,6132.00
2023-08-15T09:50:25.451Z,6130.00
2023-08-15T09:51:25.322Z,6096.00
2023-08-15T09:52:25.342Z,6259.00
2023-08-15T09:53:25.278Z,6253.00
2023-08-15T09:54:25.299Z,6274.00
2023-08-15T09:55:25.268Z,6321.00
2023-08-15T09:56:25.281Z,6457.00
2023-08-15T09:57:25.232Z,6373.00
2023-08-15T09:58:25.241Z,6238.00
2023-08-15T09:59:25.223Z,6144.00
2023-08-15T10:00:25.219Z,6160.00
2023-08-15T10:01:25.232Z,6205.00
2023-08-15T10:02:25.209Z,6033.00
2023-08-15T10:03:25.258Z,6018.00
2023-08-15T10:04:25.181Z,6177.00
2023-08-15T10:05:25.159Z,6304.00
2023-08-15T10:06:25.160Z,6287.00
2023-08-15T10:07:25.133Z,6372.00
2023-08-15T10:08:25.173Z,6207.00
2023-08-15T10:09:25.115Z,6179.00
2023-08-15T10:10:25.121Z,6133.00
2023-08-15T10:11:25.094Z,6105.00
2023-08-15T10:12:25.098Z,6004.00
2023-08-15T10:13:25.116Z,6058.00
2023-08-15T10:14:25.081Z,6227.00
2023-08-15T10:15:25.062Z,6352.00
2023-08-15T10:16:25.123Z,6302.00
2023-08-15T10:17:25.413Z,6407.00
2023-08-15T10:18:25.060Z,6541.00
2023-08-15T10:19:25.038Z,6678.00
2023-08-15T10:20:25.020Z,6710.00
2023-08-15T10:21:24.993Z,6874.00
2023-08-15T10:22:25.293Z,6700.00
2023-08-15T10:23:24.971Z,6727.00
2023-08-15T10:24:24.996Z,6741.00
2023-08-15T10:25:24.976Z,6769.00
2023-08-15T10:26:25.032Z,7231.00
2023-08-15T10:27:24.921Z,7444.00
2023-08-15T10:28:24.928Z,7447.00
2023-08-15T10:29:25.041Z,7660.00
2023-08-15T10:30:24.913Z,7294.00
2023-08-15T10:31:24.942Z,7450.00
2023-08-15T10:32:24.867Z,7403.00
2023-08-15T10:33:24.896Z,7542.00
2023-08-15T10:34:24.849Z,7822.00
2023-08-15T10:35:32.014Z,7785.00
2023-08-15T10:36:27.067Z,7314.00
2023-08-15T10:37:24.834Z,7397.00
2023-08-15T10:38:24.829Z,7430.00
2023-08-15T10:39:24.809Z,7624.00
2023-08-15T10:40:24.782Z,7548.00
2023-08-15T10:41:24.790Z,7435.00
2023-08-15T10:42:24.790Z,7562.00
2023-08-15T10:43:24.767Z,7548.00
2023-08-15T10:44:24.742Z,7689.00
2023-08-15T10:45:24.740Z,7631.00
2023-08-15T10:46:24.755Z,7610.00
2023-08-15T10:47:24.743Z,7619.00
2023-08-15T10:48:24.725Z,7639.00
2023-08-15T10:49:24.709Z,7704.00
2023-08-15T10:50:24.680Z,7710.00
2023-08-15T10:51:24.705Z,7667.00
2023-08-15T10:52:24.665Z,7735.00
2023-08-15T10:53:24.676Z,7946.00
2023-08-15T10:54:24.664Z,8029.00
2023-08-15T10:55:24.658Z,8032.00
2023-08-15T10:56:24.619Z,7933.00
2023-08-15T10:57:24.620Z,8094.00
2023-08-15T10:58:24.598Z,8290.00
2023-08-15T10:59:24.600Z,8212.00
2023-08-15T11:00:24.607Z,8117.00
2023-08-15T11:01:24.644Z,4898.00
2023-08-15T11:02:24.594Z,6996.00
2023-08-15T11:03:24.589Z,75354.00
2023-08-15T11:04:24.530Z,72658.00
2023-08-15T11:05:24.602Z,25114.00
2023-08-15T11:06:24.567Z,78449.00
2023-08-15T11:07:24.526Z,81756.00
2023-08-15T11:08:24.517Z,72161.00
2023-08-15T11:09:24.529Z,29443.00
2023-08-15T11:10:24.483Z,77358.00
2023-08-15T11:11:24.510Z,79951.00
2023-08-15T11:12:24.513Z,79121.00
2023-08-15T11:13:24.495Z,72650.00
2023-08-15T11:14:24.439Z,18647.00
2023-08-15T11:15:24.496Z,69816.00
2023-08-15T11:16:24.509Z,29489.00
2023-08-15T11:17:24.402Z,26581.00
2023-08-15T11:18:24.433Z,22712.00
2023-08-15T11:19:24.393Z,20519.00
2023-08-15T11:20:24.401Z,10036.00
2023-08-15T11:21:24.384Z,17557.00
2023-08-15T11:22:24.376Z,23954.00
2023-08-15T11:23:24.378Z,32430.00
2023-08-15T11:24:24.358Z,14598.00
2023-08-15T11:25:24.335Z,14567.00
2023-08-15T11:26:24.310Z,12671.00
2023-08-15T11:27:24.558Z,6313.00
2023-08-15T11:28:24.320Z,81421.00
2023-08-15T11:29:24.300Z,79672.00
2023-08-15T11:30:24.314Z,74237.00
2023-08-15T11:31:24.321Z,74863.00
2023-08-15T11:32:24.403Z,74786.00
2023-08-15T11:33:24.274Z,76572.00
2023-08-15T11:34:24.267Z,73474.00
2023-08-15T11:35:24.249Z,60189.00
2023-08-15T11:36:24.214Z,15523.00
2023-08-15T11:37:24.435Z,10835.00
2023-08-15T11:38:24.219Z,11013.00
2023-08-15T11:39:24.208Z,10128.00
2023-08-15T11:40:24.179Z,6267.00
2023-08-15T11:41:24.181Z,64565.00
2023-08-15T11:42:24.168Z,20291.00
2023-08-15T11:43:24.181Z,7453.00
2023-08-15T11:44:24.139Z,63294.00
2023-08-15T11:45:24.313Z,16644.00
2023-08-15T11:46:24.619Z,15527.00
2023-08-15T11:47:24.422Z,21416.00
2023-08-15T11:48:24.112Z,15077.00
2023-08-15T11:49:24.345Z,9037.00
2023-08-15T11:50:37.920Z,7453.00
2023-08-15T11:51:24.101Z,8066.00
2023-08-15T11:52:24.357Z,6557.00
2023-08-15T11:53:25.418Z,5831.00
2023-08-15T11:54:24.048Z,6115.00
2023-08-15T11:55:24.056Z,6792.00
2023-08-15T11:56:24.016Z,6482.00
2023-08-15T11:57:24.294Z,5251.00
2023-08-15T11:58:24.029Z,5366.00
2023-08-15T11:59:24.029Z,6531.00
2023-08-15T12:00:23.966Z,7077.00
2023-08-15T12:01:24.062Z,6993.00
2023-08-15T12:02:23.965Z,4548.00
2023-08-15T12:03:23.966Z,4071.00
2023-08-15T12:04:25.119Z,4858.00
2023-08-15T12:05:23.974Z,9094.00
2023-08-15T12:06:23.927Z,7400.00
2023-08-15T12:07:24.162Z,6777.00
2023-08-15T12:08:23.881Z,5991.00
2023-08-15T12:09:23.917Z,5535.00
2023-08-15T12:10:23.863Z,5827.00
2023-08-15T12:11:23.864Z,7435.00
2023-08-15T12:12:24.096Z,9334.00
2023-08-15T12:13:23.850Z,8266.00
2023-08-15T12:14:23.859Z,8573.00
2023-08-15T12:15:23.865Z,7799.00
2023-08-15T12:16:23.906Z,5468.00
2023-08-15T12:17:24.193Z,6567.00
2023-08-15T12:18:23.782Z,7737.00
2023-08-15T12:19:25.941Z,8956.00
2023-08-15T12:20:23.770Z,8106.00
2023-08-15T12:21:23.795Z,6702.00
2023-08-15T12:22:25.559Z,6040.00
2023-08-15T12:23:28.596Z,4870.00
2023-08-15T12:24:23.733Z,3802.00
2023-08-15T12:25:23.773Z,3681.00
2023-08-15T12:26:23.721Z,3663.00
2023-08-15T12:27:23.707Z,3771.00
2023-08-15T12:28:23.925Z,4268.00
2023-08-15T12:30:12.054Z,3695.00